Flight Track Log - Related Links

Times and Time Zones

All times are in EDT time to prevent confusion due to time zone crossing. See the AAL1292 flight status page for this flight to view local times or setup timezone preferences in your user account.


Time Position Orientation Groundspeed Altitude Reporting Facility
EDT Latitude Longitude Course Direction KTS MPH feet Rate Location/Type
Tue 01:50:48 PM 36.1953 -95.9125 125° Southeast 175 201 1,600  Level Kansas City Center
Tue 01:51:30 PM 36.1953 -95.9617 270° West 194 223 3,100 2,276 Climbing Kansas City Center
Tue 01:52:15 PM 36.1689 -96.0014 231° Southwest 238 274 4,900 2,754 Climbing Kansas City Center
Tue 01:52:31 PM 36.1503 -96.0011 179° South 253 291 5,900 3,000 Climbing Kansas City Center
Tue 01:53:00 PM 35.9417 -95.9810 162° South  Level Estimated
Tue 01:53:17 PM 36.0992 -95.9958 175° South 252 290 8,000  Level Kansas City Center
Tue 01:53:32 PM 36.0786 -95.9947 177° South 278 320 8,700 2,032 Climbing Kansas City Center
Tue 01:54:00 PM 35.8968 -95.8859 120° Southeast  Level FlightAware Approximate
Tue 01:54:19 PM 36.0200 -95.9833 171° South 274 315 10,100  Level Kansas City Center
Tue 01:55:00 PM 35.8120 -95.9197 158° South  Level Estimated
Tue 01:55:21 PM 35.9328 -95.9683 172° South 302 348 13,100  Level Kansas City Center
Tue 01:56:00 PM 35.7611 -95.8295 125° Southeast  Level FlightAware Approximate
Tue 01:56:23 PM 35.8389 -95.9497 171° South 328 377 15,000  Level Kansas City Center
Tue 01:57:25 PM 35.7208 -95.9311 173° South 349 402 18,300 2,565 Climbing Kansas City Center
Tue 01:58:27 PM 35.6197 -95.9117 171° South 362 417 20,300 2,157 Climbing Kansas City Center
Tue 01:58:54 PM 35.5661 -95.9056 175° South 374 430 21,500 1,172 Climbing Fort Worth Center
Tue 01:59:54 PM 35.4617 -95.8869 172° South 380 437 22,000 250 Climbing Fort Worth Center
Tue 02:00:54 PM 35.3717 -95.8733 173° South 380 437 22,000  Level Fort Worth Center
Tue 02:01:54 PM 35.2653 -95.8550 172° South 380 437 22,000  Level Fort Worth Center
Tue 02:02:54 PM 35.1608 -95.8392 173° South 380 437 22,000  Level Fort Worth Center
Tue 02:03:54 PM 35.0583 -95.8208 172° South 380 437 22,000  Level Fort Worth Center
Tue 02:04:54 PM 34.9536 -95.7997 171° South 380 437 22,000  Level Fort Worth Center
Tue 02:05:54 PM 34.8283 -95.7894 176° South 393 452 22,000  Level Fort Worth Center
Tue 02:06:54 PM 34.7244 -95.8244 195° South 388 447 22,000  Level Fort Worth Center
Tue 02:07:54 PM 34.6208 -95.8642 198° South 388 447 22,000  Level Fort Worth Center
Tue 02:08:54 PM 34.5169 -95.8989 195° South 388 447 22,000  Level Fort Worth Center
Tue 02:09:54 PM 34.4108 -95.9358 196° South 388 447 22,000  Level Fort Worth Center
Tue 02:10:54 PM 34.3069 -95.9728 196° South 393 452 22,000  Level Fort Worth Center
Tue 02:11:54 PM 34.2031 -96.0072 195° South 398 458 22,000  Level Fort Worth Center
Tue 02:12:54 PM 34.0992 -96.0442 196° South 393 452 22,000  Level Fort Worth Center
Tue 02:13:54 PM 33.9931 -96.0808 196° South 393 452 22,000 -600 Level Fort Worth Center
Tue 02:14:54 PM 33.8892 -96.1175 196° South 393 452 20,800 -1,600 Descending Fort Worth Center
Tue 02:15:54 PM 33.7933 -96.1489 195° South 375 432 18,800 -2,050 Descending Fort Worth Center
Tue 02:16:54 PM 33.7083 -96.1850 199° South 368 423 16,700 -2,250 Descending Fort Worth Center
Tue 02:17:54 PM 33.6150 -96.2536 211° Southwest 352 405 14,300 -2,150 Descending Fort Worth Center
Tue 02:18:54 PM 33.5319 -96.3119 210° Southwest 352 405 12,400 -1,500 Descending Fort Worth Center
Tue 02:19:54 PM 33.4531 -96.3653 209° Southwest 346 398 11,300 -900 Descending Fort Worth Center
Tue 02:20:54 PM 33.3825 -96.4183 212° Southwest 321 369 10,600 -1,150 Descending Fort Worth Center
Tue 02:21:54 PM 33.3267 -96.4886 226° Southwest 303 349 9,000 -1,400 Descending Fort Worth Center
Tue 02:22:54 PM 33.2961 -96.5758 247° West 290 334 7,800 -1,400 Descending Fort Worth Center
Tue 02:23:54 PM 33.2778 -96.6656 256° West 280 322 6,200 -1,400 Descending Fort Worth Center
Tue 02:24:54 PM 33.2575 -96.7525 254° West 280 322 5,000 -600 Descending Fort Worth Center
Tue 02:25:54 PM 33.2411 -96.8322 256° West 280 322 5,000  Level Fort Worth Center
Tue 02:26:54 PM 33.2228 -96.9217 256° West 280 322 5,000  Level Fort Worth Center
Tue 02:27:54 PM 33.1750 -97.0014 234° Southwest 268 308 5,000 -350 Level Fort Worth Center
Tue 02:28:54 PM 33.1167 -97.0289 202° Southwest 249 287 4,300 -792 Descending Fort Worth Center
Tue 02:29:40 PM 33.0667 -97.0167 168° South 209 241 3,600 -913 Descending Dallas / Fort Worth TRACON

Login

Don't have an account? Register now (free) for customized features, flight alerts, and more!